Terminal Aerodrome Forecast
Issued by NWS Hastings, NE

Current Version | Previous Version | Text Only | Print | Product List | Glossary On
Versions: 1 2 3 4 5 6 7 8 9 10 11 12 13 14 15 16
305
FTUS45 KGID 171122 CCA
TAFEAR
TAF COR
KEAR 171122Z 1712/1812 30006KT P6SM FEW200
     FM172000 26006KT P6SM FEW250
     FM180000 22006KT P6SM SCT250
     FM180900 22006KT 5SM BR SCT250
      AMD LTD TO CLD VIS AND WIND=

USA.gov is the U.S. government's official web portal to all federal, state and local government web resources and services.